sensor_id;sensor_type;location;lat;lon;timestamp;temperature;humidity
3792;DHT22;1911;53.768;11.474;2022-07-29T12:26:30;26.10;1.00
3792;DHT22;1911;53.768;11.474;2022-07-29T12:36:26;26.80;1.00
3792;DHT22;1911;53.768;11.474;2022-07-29T12:39:22;26.80;1.00
3792;DHT22;1911;53.768;11.474;2022-07-29T12:49:04;27.40;1.00
3792;DHT22;1911;53.768;11.474;2022-07-29T12:51:35;27.50;1.00
3792;DHT22;1911;53.768;11.474;2022-07-29T12:54:12;27.50;1.00
3792;DHT22;1911;53.768;11.474;2022-07-29T12:56:58;27.30;1.00
3792;DHT22;1911;53.768;11.474;2022-07-29T12:59:31;27.10;1.00
3792;DHT22;1911;53.768;11.474;2022-07-29T13:01:57;26.90;1.00
3792;DHT22;1911;53.768;11.474;2022-07-29T13:04:33;26.80;1.00
3792;DHT22;1911;53.768;11.474;2022-07-29T13:07:05;26.60;1.00
3792;DHT22;1911;53.768;11.474;2022-07-29T13:09:45;26.40;1.00
3792;DHT22;1911;53.768;11.474;2022-07-29T13:12:14;26.40;1.00
3792;DHT22;1911;53.768;11.474;2022-07-29T13:14:57;26.30;1.00
3792;DHT22;1911;53.768;11.474;2022-07-29T13:17:25;26.40;1.00
3792;DHT22;1911;53.768;11.474;2022-07-29T13:20:07;26.50;1.00
3792;DHT22;1911;53.768;11.474;2022-07-29T13:22:47;26.50;1.00
3792;DHT22;1911;53.768;11.474;2022-07-29T13:25:26;26.30;1.00
3792;DHT22;1911;53.768;11.474;2022-07-29T13:27:52;26.30;1.00
3792;DHT22;1911;53.768;11.474;2022-07-29T13:36:06;26.30;1.00
3792;DHT22;1911;53.768;11.474;2022-07-29T13:38:50;26.50;1.00
3792;DHT22;1911;53.768;11.474;2022-07-29T13:52:10;26.70;1.00
3792;DHT22;1911;53.768;11.474;2022-07-29T13:54:53;26.60;1.00
3792;DHT22;1911;53.768;11.474;2022-07-29T14:07:55;26.50;1.00
3792;DHT22;1911;53.768;11.474;2022-07-29T14:18:08;26.90;1.00
3792;DHT22;1911;53.768;11.474;2022-07-29T14:33:50;27.10;1.00
3792;DHT22;1911;53.768;11.474;2022-07-29T14:36:16;27.00;1.00
3792;DHT22;1911;53.768;11.474;2022-07-29T14:38:41;27.00;1.00
3792;DHT22;1911;53.768;11.474;2022-07-29T14:41:21;26.90;1.00
3792;DHT22;1911;53.768;11.474;2022-07-29T14:43:53;26.70;1.00
3792;DHT22;1911;53.768;11.474;2022-07-29T14:46:24;26.40;1.00
3792;DHT22;1911;53.768;11.474;2022-07-29T14:48:49;26.50;1.00
3792;DHT22;1911;53.768;11.474;2022-07-29T14:51:20;26.60;1.00
3792;DHT22;1911;53.768;11.474;2022-07-29T14:53:46;26.50;1.00
3792;DHT22;1911;53.768;11.474;2022-07-29T14:56:18;26.50;1.00
3792;DHT22;1911;53.768;11.474;2022-07-29T14:58:54;26.50;1.00
3792;DHT22;1911;53.768;11.474;2022-07-29T15:01:27;26.50;1.00
3792;DHT22;1911;53.768;11.474;2022-07-29T15:03:53;26.50;1.00
3792;DHT22;1911;53.768;11.474;2022-07-29T15:06:19;26.50;1.00
3792;DHT22;1911;53.768;11.474;2022-07-29T15:08:56;26.50;1.00
3792;DHT22;1911;53.768;11.474;2022-07-29T15:11:27;26.50;1.00
3792;DHT22;1911;53.768;11.474;2022-07-29T15:13:55;26.40;1.00
3792;DHT22;1911;53.768;11.474;2022-07-29T15:16:44;26.60;1.00
3792;DHT22;1911;53.768;11.474;2022-07-29T15:19:10;26.70;1.00
3792;DHT22;1911;53.768;11.474;2022-07-29T15:21:45;26.80;1.00
3792;DHT22;1911;53.768;11.474;2022-07-29T15:24:14;26.80;1.00
3792;DHT22;1911;53.768;11.474;2022-07-29T15:26:42;26.90;1.00
3792;DHT22;1911;53.768;11.474;2022-07-29T15:29:23;26.90;1.00
3792;DHT22;1911;53.768;11.474;2022-07-29T15:31:51;26.90;1.00
3792;DHT22;1911;53.768;11.474;2022-07-29T15:34:17;26.80;1.00
3792;DHT22;1911;53.768;11.474;2022-07-29T15:37:05;26.80;1.00
3792;DHT22;1911;53.768;11.474;2022-07-29T15:39:53;26.90;1.00
3792;DHT22;1911;53.768;11.474;2022-07-29T15:42:22;27.00;1.00
3792;DHT22;1911;53.768;11.474;2022-07-29T15:44:51;27.10;1.00
3792;DHT22;1911;53.768;11.474;2022-07-29T15:47:16;27.30;1.00
3792;DHT22;1911;53.768;11.474;2022-07-29T15:49:42;27.50;1.00
3792;DHT22;1911;53.768;11.474;2022-07-29T15:52:17;27.40;1.00
3792;DHT22;1911;53.768;11.474;2022-07-29T15:55:04;27.40;1.00
3792;DHT22;1911;53.768;11.474;2022-07-29T15:57:47;27.30;1.00
3792;DHT22;1911;53.768;11.474;2022-07-29T16:00:22;27.10;1.00
3792;DHT22;1911;53.768;11.474;2022-07-29T16:02:51;26.90;1.00
3792;DHT22;1911;53.768;11.474;2022-07-29T16:05:22;26.90;1.00
3792;DHT22;1911;53.768;11.474;2022-07-29T16:07:58;26.80;1.00
3792;DHT22;1911;53.768;11.474;2022-07-29T16:10:27;26.70;1.00
3792;DHT22;1911;53.768;11.474;2022-07-29T16:12:53;26.60;1.00
3792;DHT22;1911;53.768;11.474;2022-07-29T16:15:18;26.60;1.00
3792;DHT22;1911;53.768;11.474;2022-07-29T16:17:44;26.60;1.00
3792;DHT22;1911;53.768;11.474;2022-07-29T16:20:10;26.70;1.00
3792;DHT22;1911;53.768;11.474;2022-07-29T16:22:52;26.80;1.00
3792;DHT22;1911;53.768;11.474;2022-07-29T16:25:49;26.90;1.00
3792;DHT22;1911;53.768;11.474;2022-07-29T16:28:25;27.20;1.00
3792;DHT22;1911;53.768;11.474;2022-07-29T16:31:14;27.10;1.00
3792;DHT22;1911;53.768;11.474;2022-07-29T16:36:55;26.80;1.00
3792;DHT22;1911;53.768;11.474;2022-07-29T16:39:21;26.90;1.00
3792;DHT22;1911;53.768;11.474;2022-07-29T16:41:56;26.80;1.00
3792;DHT22;1911;53.768;11.474;2022-07-29T16:44:25;26.60;1.00
3792;DHT22;1911;53.768;11.474;2022-07-29T16:46:53;26.30;1.00
3792;DHT22;1911;53.768;11.474;2022-07-29T16:49:22;26.10;1.00
3792;DHT22;1911;53.768;11.474;2022-07-29T16:51:58;26.00;1.00
3792;DHT22;1911;53.768;11.474;2022-07-29T16:54:24;25.80;1.00
3792;DHT22;1911;53.768;11.474;2022-07-29T16:56:52;25.70;1.00
3792;DHT22;1911;53.768;11.474;2022-07-29T16:59:21;25.70;1.00
3792;DHT22;1911;53.768;11.474;2022-07-29T17:01:49;25.60;1.00
3792;DHT22;1911;53.768;11.474;2022-07-29T17:04:20;25.50;1.00
3792;DHT22;1911;53.768;11.474;2022-07-29T17:07:09;25.40;1.00
3792;DHT22;1911;53.768;11.474;2022-07-29T17:09:48;25.40;1.00
3792;DHT22;1911;53.768;11.474;2022-07-29T17:12:16;25.40;1.00
3792;DHT22;1911;53.768;11.474;2022-07-29T17:17:59;25.30;1.00
3792;DHT22;1911;53.768;11.474;2022-07-29T17:20:26;25.30;1.00
3792;DHT22;1911;53.768;11.474;2022-07-29T17:22:57;25.30;1.00
3792;DHT22;1911;53.768;11.474;2022-07-29T17:25:23;25.10;1.00
3792;DHT22;1911;53.768;11.474;2022-07-29T17:27:49;25.00;1.00
3792;DHT22;1911;53.768;11.474;2022-07-29T17:30:22;25.10;1.00
3792;DHT22;1911;53.768;11.474;2022-07-29T17:32:48;25.00;1.00
3792;DHT22;1911;53.768;11.474;2022-07-29T17:35:16;24.90;1.00
3792;DHT22;1911;53.768;11.474;2022-07-29T17:38:07;24.80;1.00
3792;DHT22;1911;53.768;11.474;2022-07-29T17:40:47;24.40;1.00
3792;DHT22;1911;53.768;11.474;2022-07-29T17:43:13;24.30;1.00
3792;DHT22;1911;53.768;11.474;2022-07-29T17:45:38;24.20;1.00
3792;DHT22;1911;53.768;11.474;2022-07-29T17:48:04;24.10;1.00
3792;DHT22;1911;53.768;11.474;2022-07-29T17:50:30;24.00;1.00
3792;DHT22;1911;53.768;11.474;2022-07-29T17:52:55;24.00;1.00
3792;DHT22;1911;53.768;11.474;2022-07-29T17:55:21;23.90;1.00
3792;DHT22;1911;53.768;11.474;2022-07-29T17:57:47;23.90;1.00
3792;DHT22;1911;53.768;11.474;2022-07-29T18:00:16;23.80;1.00
3792;DHT22;1911;53.768;11.474;2022-07-29T18:02:41;23.70;1.00
3792;DHT22;1911;53.768;11.474;2022-07-29T18:05:07;23.50;1.00
3792;DHT22;1911;53.768;11.474;2022-07-29T18:07:51;23.50;1.00
3792;DHT22;1911;53.768;11.474;2022-07-29T18:10:54;23.40;1.00
3792;DHT22;1911;53.768;11.474;2022-07-29T18:13:40;23.40;1.00
3792;DHT22;1911;53.768;11.474;2022-07-29T18:16:23;23.30;1.00
3792;DHT22;1911;53.768;11.474;2022-07-29T18:29:11;22.90;1.00
3792;DHT22;1911;53.768;11.474;2022-07-29T18:35:27;22.70;1.00
3792;DHT22;1911;53.768;11.474;2022-07-29T18:51:02;22.30;1.00
3792;DHT22;1911;53.768;11.474;2022-07-29T18:53:37;22.20;1.00
3792;DHT22;1911;53.768;11.474;2022-07-29T18:59:57;22.00;3.20
3792;DHT22;1911;53.768;11.474;2022-07-29T19:02:54;22.00;15.50
3792;DHT22;1911;53.768;11.474;2022-07-29T19:14:59;21.70;34.40
3792;DHT22;1911;53.768;11.474;2022-07-29T19:21:05;21.60;52.30
3792;DHT22;1911;53.768;11.474;2022-07-29T19:23:31;21.50;52.10
3792;DHT22;1911;53.768;11.474;2022-07-29T19:26:09;21.50;78.70
3792;DHT22;1911;53.768;11.474;2022-07-29T19:28:35;21.40;99.20
3792;DHT22;1911;53.768;11.474;2022-07-29T19:31:00;21.30;99.90
3792;DHT22;1911;53.768;11.474;2022-07-29T19:44:15;21.10;99.90
3792;DHT22;1911;53.768;11.474;2022-07-29T19:50:12;21.00;99.90
3792;DHT22;1911;53.768;11.474;2022-07-29T19:53:32;20.90;99.90
3792;DHT22;1911;53.768;11.474;2022-07-29T19:56:08;20.90;99.90
3792;DHT22;1911;53.768;11.474;2022-07-29T20:02:00;20.70;99.90
3792;DHT22;1911;53.768;11.474;2022-07-29T20:08:28;20.60;1.00
3792;DHT22;1911;53.768;11.474;2022-07-29T20:11:30;20.50;1.00
3792;DHT22;1911;53.768;11.474;2022-07-29T20:14:11;20.50;1.00
3792;DHT22;1911;53.768;11.474;2022-07-29T20:16:42;20.40;1.00
3792;DHT22;1911;53.768;11.474;2022-07-29T20:19:18;20.40;69.40
3792;DHT22;1911;53.768;11.474;2022-07-29T20:21:55;20.30;99.90
3792;DHT22;1911;53.768;11.474;2022-07-29T20:24:26;20.30;99.90
3792;DHT22;1911;53.768;11.474;2022-07-29T20:30:09;20.10;99.90
3792;DHT22;1911;53.768;11.474;2022-07-29T20:44:04;20.00;99.90
3792;DHT22;1911;53.768;11.474;2022-07-29T20:50:26;20.00;99.90
3792;DHT22;1911;53.768;11.474;2022-07-29T20:59:45;19.90;99.90
3792;DHT22;1911;53.768;11.474;2022-07-29T21:09:33;19.80;99.90
3792;DHT22;1911;53.768;11.474;2022-07-29T21:12:22;19.80;99.90
3792;DHT22;1911;53.768;11.474;2022-07-29T21:25:27;19.60;99.90
3792;DHT22;1911;53.768;11.474;2022-07-29T21:28:06;19.60;99.90
3792;DHT22;1911;53.768;11.474;2022-07-29T21:31:25;19.50;99.90
3792;DHT22;1911;53.768;11.474;2022-07-29T21:34:37;19.50;99.90
3792;DHT22;1911;53.768;11.474;2022-07-29T21:43:38;19.30;99.90
3792;DHT22;1911;53.768;11.474;2022-07-29T21:46:06;19.30;1.00
3792;DHT22;1911;53.768;11.474;2022-07-29T21:48:42;19.20;1.00
3792;DHT22;1911;53.768;11.474;2022-07-29T21:51:33;19.20;1.00
3792;DHT22;1911;53.768;11.474;2022-07-29T21:54:14;19.10;1.00
3792;DHT22;1911;53.768;11.474;2022-07-29T21:56:50;19.10;1.00
3792;DHT22;1911;53.768;11.474;2022-07-29T21:59:23;19.10;1.00
3792;DHT22;1911;53.768;11.474;2022-07-29T22:01:55;19.00;1.00
3792;DHT22;1911;53.768;11.474;2022-07-29T22:04:34;18.90;1.00
3792;DHT22;1911;53.768;11.474;2022-07-29T22:07:48;18.90;1.00
3792;DHT22;1911;53.768;11.474;2022-07-29T22:10:27;18.90;1.00
3792;DHT22;1911;53.768;11.474;2022-07-29T22:13:02;18.90;1.00
3792;DHT22;1911;53.768;11.474;2022-07-29T22:15:54;18.80;1.00
3792;DHT22;1911;53.768;11.474;2022-07-29T22:18:41;18.80;1.00
3792;DHT22;1911;53.768;11.474;2022-07-29T22:21:19;18.80;1.00
3792;DHT22;1911;53.768;11.474;2022-07-29T22:27:48;18.70;1.00
3792;DHT22;1911;53.768;11.474;2022-07-29T22:30:33;18.70;1.00
3792;DHT22;1911;53.768;11.474;2022-07-29T22:33:15;18.70;1.00
3792;DHT22;1911;53.768;11.474;2022-07-29T22:39:24;18.60;31.70
3792;DHT22;1911;53.768;11.474;2022-07-29T22:42:12;18.50;93.30
3792;DHT22;1911;53.768;11.474;2022-07-29T22:44:57;18.40;91.40
3792;DHT22;1911;53.768;11.474;2022-07-29T22:47:46;18.40;99.90
3792;DHT22;1911;53.768;11.474;2022-07-29T22:50:27;18.30;99.90
3792;DHT22;1911;53.768;11.474;2022-07-29T22:53:10;18.30;99.90
3792;DHT22;1911;53.768;11.474;2022-07-29T22:59:15;18.30;99.90
3792;DHT22;1911;53.768;11.474;2022-07-29T23:01:49;18.20;99.90
3792;DHT22;1911;53.768;11.474;2022-07-29T23:04:41;18.20;1.00
3792;DHT22;1911;53.768;11.474;2022-07-29T23:13:40;18.10;1.00
3792;DHT22;1911;53.768;11.474;2022-07-29T23:16:37;18.10;1.00
3792;DHT22;1911;53.768;11.474;2022-07-29T23:19:54;18.10;1.00
3792;DHT22;1911;53.768;11.474;2022-07-29T23:22:30;18.00;1.00
3792;DHT22;1911;53.768;11.474;2022-07-29T23:25:51;17.90;1.00
3792;DHT22;1911;53.768;11.474;2022-07-29T23:28:36;18.00;1.00
3792;DHT22;1911;53.768;11.474;2022-07-29T23:31:44;17.90;1.00
3792;DHT22;1911;53.768;11.474;2022-07-29T23:34:35;17.90;1.00
3792;DHT22;1911;53.768;11.474;2022-07-29T23:37:42;17.90;1.00
3792;DHT22;1911;53.768;11.474;2022-07-29T23:40:53;17.80;1.00
